Terminal Aerodrome Forecast
Issued by NWS

Home | Current Version | Previous Version | Text Only | Print | Product List | Glossary On
Versions: 1 2 3 4 5 6 7 8 9 10 11 12
000
FTUS44 KEPZ 020527
TAFDMN
TAF
KDMN 020527Z 0206/0306 29008KT P6SM SCT130 BKN250
     FM020900 14007KT P6SM SCT100 BKN250
     FM022000 27010G20KT P6SM VCTS SCT090CB BKN250=

USA.gov is the U.S. government's official web portal to all federal, state and local government web resources and services.